Latest Weather Observations for Mangrove Mountain

IDN60901

Issued at 9:31 pm EST Tuesday 26 May 2015 (issued every 10 minutes, with the page automatically refreshed every 10 minutes)

About weather observations | Map of Sydney area stations | Latest observations for Sydney area | Other Formats
Station Details ID: 061375 Name: MANGROVE MOUNTAIN AWS Lat: -33.29 Lon: 151.21 Height: 305.0 m
Data from the previous 72 hours. | See also: Recent months at Mangrove Mountain
Date/Time
EST
Tmp

°C
App
Tmp
°C
Dew
Point
°C
Rel
Hum
%
Delta-T

°C
Wind Press
QNH
hPa
Press
MSL
hPa
Rain
since
9 am
mm
Dir
 
Spd
km/h
Gust
km/h
Spd
kts
Gust
kts
26/09:30pm 9.9 9.4 9.3 96 0.3 W 2 4 1 2 - - 0.0
26/09:00pm 10.1 10.0 9.5 96 0.3 CALM 0 0 0 0 - - 0.0
26/08:30pm 10.5 10.6 10.0 97 0.3 CALM 0 0 0 0 - - 0.0
26/08:00pm 10.4 10.5 10.1 98 0.2 CALM 0 0 0 0 - - 0.0
26/07:30pm 10.4 10.5 10.1 98 0.2 CALM 0 0 0 0 - - 0.0
26/07:00pm 10.1 10.0 9.6 97 0.3 CALM 0 0 0 0 - - 0.0
26/06:30pm 9.8 9.6 9.0 95 0.4 CALM 0 0 0 0 - - 0.0
26/06:00pm 10.0 9.8 8.9 93 0.6 CALM 0 0 0 0 - - 0.0
26/05:30pm 10.7 10.6 9.5 92 0.6 CALM 0 0 0 0 - - 0.0
26/05:00pm 11.4 11.4 9.7 89 0.9 CALM 0 0 0 0 - - 0.0
26/04:30pm 12.2 12.4 10.4 89 0.9 CALM 0 0 0 0 - - 0.0
26/04:00pm 13.2 13.4 10.6 84 1.4 CALM 0 0 0 0 - - 0.0
26/03:30pm 13.8 13.9 10.0 78 2.0 CALM 0 0 0 0 - - 0.0
26/03:00pm 14.7 14.3 9.9 73 2.5 WSW 2 6 1 3 - - 0.0
26/02:30pm 14.7 14.2 9.5 71 2.7 W 2 4 1 2 - - 0.0
26/02:00pm 14.8 13.7 8.5 66 3.2 SW 4 6 2 3 - - 0.0
26/01:30pm 15.7 15.0 10.2 70 2.9 SW 4 7 2 4 - - 0.0
26/01:00pm 15.5 15.0 9.4 67 3.2 SSW 2 7 1 4 - - 0.0
26/12:30pm 15.1 14.4 9.9 71 2.7 W 4 7 2 4 - - 0.0
26/12:00pm 14.7 13.6 10.1 74 2.4 WSW 6 9 3 5 - - 0.0
26/11:30am 14.8 13.9 10.8 77 2.1 WNW 6 7 3 4 - - 0.0
26/11:00am 13.8 13.3 10.6 81 1.7 W 4 7 2 4 - - 0.0
26/10:30am 11.8 10.6 9.5 86 1.2 WSW 6 7 3 4 - - 0.0
26/10:00am 11.1 10.2 10.6 97 0.3 W 6 7 3 4 - - 0.0
26/09:30am 10.0 9.3 10.0 100 0.0 WNW 4 6 2 3 - - 0.0
26/09:00am 8.7 7.3 8.7 100 0.0 NW 6 7 3 4 - - 0.2
26/08:30am 7.3 5.5 7.3 100 0.0 NW 6 9 3 5 - - 0.2
26/08:00am 6.6 4.7 6.6 100 0.0 NW 6 9 3 5 - - 0.2
26/07:30am 5.4 3.6 5.4 100 0.0 NW 4 6 2 3 - - 0.2
26/07:00am 4.9 3.4 4.9 100 0.0 WNW 2 4 1 2 - - 0.2
26/06:30am 4.3 2.3 4.3 100 0.0 NW 4 6 2 3 - - 0.2
26/06:00am 5.0 3.5 5.0 100 0.0 NW 2 2 1 1 - - 0.2
26/05:30am 5.3 4.2 5.3 100 0.0 CALM 0 0 0 0 - - 0.0
26/05:00am 5.5 4.5 5.5 100 0.0 CALM 0 0 0 0 - - 0.0
26/04:30am 6.3 5.5 6.3 100 0.0 CALM 0 0 0 0 - - 0.0
26/04:00am 7.8 7.3 7.8 100 0.0 CALM 0 2 0 1 - - 0.0
26/03:30am 6.8 6.1 6.8 100 0.0 CALM 0 0 0 0 - - 0.0
26/03:00am 7.6 7.0 7.6 100 0.0 CALM 0 0 0 0 - - 0.0
26/02:30am 8.8 8.2 8.8 100 0.0 W 2 6 1 3 - - 0.0
26/02:00am 8.9 7.5 8.9 100 0.0 WNW 6 7 3 4 - - 0.0
26/01:30am 8.4 7.3 8.4 100 0.0 NW 4 6 2 3 - - 0.0
26/01:00am 7.8 6.9 7.8 100 0.0 NW 2 4 1 2 - - 0.0
26/12:30am 8.1 7.3 8.1 100 0.0 NW 2 2 1 1 - - 0.0
26/12:00am 8.0 7.5 8.0 100 0.0 CALM 0 0 0 0 - - 0.0
 
Date/Time
EST
Tmp

°C
App
Tmp
°C
Dew
Point
°C
Rel
Hum
%
Delta-T

°C
Wind Press
QNH
hPa
Press
MSL
hPa
Rain
since
9 am
mm
Dir
 
Spd
km/h
Gust
km/h
Spd
kts
Gust
kts
25/11:30pm 8.6 7.5 8.6 100 0.0 NNW 4 6 2 3 - - 0.0
25/11:00pm 8.2 7.7 7.9 98 0.1 CALM 0 0 0 0 - - 0.0
25/10:30pm 8.9 8.6 8.8 99 0.0 CALM 0 0 0 0 - - 0.0
25/10:00pm 8.9 8.6 8.5 97 0.2 CALM 0 0 0 0 - - 0.0
25/09:30pm 9.1 8.8 8.5 96 0.3 CALM 0 0 0 0 - - 0.0
25/09:00pm 9.6 9.4 9.0 96 0.3 CALM 0 0 0 0 - - 0.0
25/08:30pm 9.8 9.6 9.0 95 0.4 CALM 0 0 0 0 - - 0.0
25/08:00pm 10.2 10.0 9.1 93 0.6 CALM 0 0 0 0 - - 0.0
25/07:30pm 10.3 10.1 9.1 92 0.6 CALM 0 0 0 0 - - 0.0
25/07:00pm 11.3 11.3 9.9 91 0.7 CALM 0 2 0 1 - - 0.0
25/06:30pm 11.6 10.9 10.0 90 0.8 ENE 4 4 2 2 - - 0.0
25/06:00pm 12.2 11.7 10.6 90 0.8 ENE 4 6 2 3 - - 0.0
25/05:30pm 12.7 12.3 11.1 90 0.9 ENE 4 6 2 3 - - 0.0
25/05:00pm 13.1 12.7 11.0 87 1.1 ENE 4 4 2 2 - - 0.0
25/04:30pm 15.1 14.8 11.3 78 2.1 E 4 6 2 3 - - 0.0
25/04:00pm 16.7 17.2 11.6 72 2.8 CALM 0 0 0 0 - - 0.0
25/03:30pm 17.4 16.8 10.5 64 3.7 WNW 4 6 2 3 - - 0.0
25/03:00pm 16.7 15.6 9.9 64 3.6 N 6 9 3 5 - - 0.0
25/02:30pm 16.1 14.8 9.3 64 3.6 N 6 11 3 6 - - 0.0
25/02:00pm 15.9 14.5 8.9 63 3.6 NNW 6 15 3 8 - - 0.0
25/01:30pm 16.1 14.8 9.3 64 3.6 NW 6 9 3 5 - - 0.0
25/01:00pm 17.8 16.3 9.2 57 4.6 NW 7 13 4 7 - - 0.0
25/12:30pm 16.3 14.6 8.3 59 4.1 NNW 7 13 4 7 - - 0.0
25/12:00pm 16.4 15.0 8.9 61 3.9 NNW 6 9 3 5 - - 0.0
25/11:30am 15.8 15.0 11.0 73 2.6 WNW 6 9 3 5 - - 0.0
25/11:00am 15.5 14.9 10.5 72 2.7 NW 4 6 2 3 - - 0.0
25/10:30am 14.1 13.5 10.3 78 2.0 NW 4 6 2 3 - - 0.0
25/10:00am 13.4 12.2 9.6 78 2.0 NNW 6 7 3 4 - - 0.0
25/09:30am 11.3 10.1 9.4 88 1.0 NNW 6 7 3 4 - - 0.0
25/09:00am 11.5 11.6 11.5 100 0.0 WNW 2 6 1 3 - - 0.0
25/08:30am 9.6 9.2 9.6 100 0.0 NE 2 4 1 2 - - 0.0
25/08:00am 8.3 7.2 8.3 100 0.0 NNW 4 6 2 3 - - 0.0
25/07:30am 7.2 5.4 7.2 100 0.0 NW 6 7 3 4 - - 0.0
25/07:00am 7.4 5.7 7.4 100 0.0 NW 6 7 3 4 - - 0.0
25/06:30am 7.2 6.2 7.2 100 0.0 NW 2 4 1 2 - - 0.0
25/06:00am 7.0 5.9 7.0 100 0.0 NNW 2 4 1 2 - - 0.0
25/05:30am 7.0 5.9 7.0 100 0.0 NNW 2 4 1 2 - - 0.0
25/05:00am 7.6 6.3 7.6 100 0.0 NNW 4 6 2 3 - - 0.0
25/04:30am 7.7 6.0 7.7 100 0.0 NNW 6 6 3 3 - - 0.0
25/04:00am 7.6 5.7 7.6 100 0.0 NW 7 9 4 5 - - 0.0
25/03:30am 7.5 5.8 7.5 100 0.0 NNW 6 7 3 4 - - 0.0
25/03:00am 7.5 6.2 7.5 100 0.0 NW 4 6 2 3 - - 0.0
25/02:30am 7.3 5.9 7.3 100 0.0 NW 4 6 2 3 - - 0.0
25/02:00am 7.2 5.8 7.2 100 0.0 NW 4 6 2 3 - - 0.0
25/01:30am 7.0 5.1 6.9 99 0.0 NW 6 6 3 3 - - 0.0
25/01:00am 7.0 6.2 6.6 97 0.2 CALM 0 0 0 0 - - 0.0
25/12:30am 8.0 7.1 7.6 97 0.2 NNW 2 6 1 3 - - 0.0
25/12:00am 7.1 6.3 6.5 96 0.3 CALM 0 6 0 3 - - 0.0
 
Date/Time
EST
Tmp

°C
App
Tmp
°C
Dew
Point
°C
Rel
Hum
%
Delta-T

°C
Wind Press
QNH
hPa
Press
MSL
hPa
Rain
since
9 am
mm
Dir
 
Spd
km/h
Gust
km/h
Spd
kts
Gust
kts
24/11:30pm 7.2 6.3 6.0 92 0.6 CALM 0 0 0 0 - - 0.0
24/11:00pm 7.6 6.7 6.2 91 0.6 CALM 0 0 0 0 - - 0.0
24/10:30pm 8.1 7.3 6.6 90 0.7 CALM 0 0 0 0 - - 0.0
24/10:00pm 8.4 7.6 6.7 89 0.8 CALM 0 0 0 0 - - 0.0
24/09:30pm 8.4 7.8 7.2 92 0.6 CALM 0 0 0 0 - - 0.0
24/09:00pm 8.2 7.6 7.4 95 0.4 CALM 0 0 0 0 - - 0.0
24/08:30pm 8.4 7.8 7.5 94 0.4 CALM 0 0 0 0 - - 0.0
24/08:00pm 8.4 7.8 7.6 95 0.4 CALM 0 0 0 0 - - 0.0
24/07:30pm 8.4 7.8 7.5 94 0.4 CALM 0 0 0 0 - - 0.0
24/07:00pm 8.9 8.5 8.1 95 0.4 CALM 0 0 0 0 - - 0.0
24/06:30pm 9.1 8.7 8.2 94 0.4 CALM 0 0 0 0 - - 0.0
24/06:00pm 9.3 8.9 8.2 93 0.5 CALM 0 0 0 0 - - 0.0
24/05:30pm 9.8 9.3 7.9 88 0.9 CALM 0 0 0 0 - - 0.0
24/05:00pm 11.1 10.6 8.0 81 1.5 CALM 0 0 0 0 - - 0.0
24/04:30pm 13.7 13.5 9.0 73 2.4 CALM 0 0 0 0 - - 0.0
24/04:00pm 15.2 13.9 7.7 61 3.8 SSE 4 6 2 3 - - 0.0
24/03:30pm 15.8 15.0 8.3 61 3.9 S 2 6 1 3 - - 0.0
24/03:00pm 16.1 15.6 7.8 58 4.2 CALM 0 0 0 0 - - 0.0
24/02:30pm 16.4 15.6 8.1 58 4.3 SSW 2 6 1 3 - - 0.0
24/02:00pm 15.7 14.3 7.2 57 4.3 S 4 6 2 3 - - 0.0
24/01:30pm 16.0 14.3 7.5 57 4.3 SE 6 9 3 5 - - 0.0
24/01:00pm 16.6 15.8 8.1 57 4.4 SSW 2 6 1 3 - - 0.0
24/12:30pm 16.4 15.3 10.0 66 3.4 WSW 6 9 3 5 - - 0.0
24/12:00pm 14.8 13.7 8.5 66 3.2 WSW 4 7 2 4 - - 0.0
24/11:30am 14.7 12.9 9.5 71 2.7 W 9 13 5 7 - - 0.0
24/11:00am 13.6 11.8 9.5 76 2.1 WNW 9 13 5 7 - - 0.0
24/10:30am 12.6 11.4 9.6 82 1.6 WNW 6 9 3 5 - - 0.0
24/10:00am 11.7 10.5 9.6 87 1.1 W 6 9 3 5 - - 0.0
24/09:30am 10.6 9.4 9.5 93 0.6 NW 6 9 3 5 - - 0.0
24/09:00am 10.1 9.3 9.6 97 0.3 WNW 4 6 2 3 - - 0.2
24/08:30am 8.0 6.4 8.0 100 0.0 NW 6 9 3 5 - - 0.2
24/08:00am 7.1 6.0 7.1 100 0.0 NW 2 4 1 2 - - 0.2
24/07:30am 5.3 2.9 5.3 100 0.0 NW 7 9 4 5 - - 0.2
24/07:00am 4.7 3.5 4.7 100 0.0 CALM 0 0 0 0 - - 0.0
24/06:30am 4.8 3.3 4.8 100 0.0 NW 2 6 1 3 - - 0.0
24/06:00am 5.2 3.4 5.2 100 0.0 NW 4 6 2 3 - - 0.0
24/05:30am 5.3 3.5 5.3 100 0.0 NW 4 6 2 3 - - 0.0
24/05:00am 5.7 4.0 5.7 100 0.0 NW 4 6 2 3 - - 0.0
24/04:30am 5.4 3.2 5.4 100 0.0 NW 6 7 3 4 - - 0.0
24/04:00am 5.6 3.8 5.6 100 0.0 NW 4 6 2 3 - - 0.0
24/03:30am 5.8 4.1 5.8 100 0.0 NW 4 6 2 3 - - 0.0
24/03:00am 6.6 5.1 6.6 100 0.0 WNW 4 6 2 3 - - 0.0
24/02:30am 6.3 4.7 6.3 100 0.0 WSW 4 6 2 3 - - 0.0
24/02:00am 5.9 4.6 5.9 100 0.0 WSW 2 4 1 2 - - 0.0
24/01:30am 6.1 5.2 6.1 100 0.0 CALM 0 0 0 0 - - 0.0
24/01:00am 6.1 5.2 6.0 99 0.0 CALM 0 0 0 0 - - 0.0
24/12:30am 6.2 5.3 6.1 99 0.0 CALM 0 0 0 0 - - 0.0
24/12:00am 6.5 5.7 6.4 99 0.0 CALM 0 0 0 0 - - 0.0
 
Date/Time
EST
Tmp

°C
App
Tmp
°C
Dew
Point
°C
Rel
Hum
%
Delta-T

°C
Wind Press
QNH
hPa
Press
MSL
hPa
Rain
since
9 am
mm
Dir
 
Spd
km/h
Gust
km/h
Spd
kts
Gust
kts
23/11:30pm 6.5 5.2 6.2 98 0.1 W 2 4 1 2 - - 0.0
23/11:00pm 6.9 5.7 6.6 98 0.1 W 2 6 1 3 - - 0.0
23/10:30pm 6.6 5.3 6.0 96 0.3 W 2 2 1 1 - - 0.0
23/10:00pm 6.8 5.8 5.6 92 0.5 CALM 0 4 0 2 - - 0.0

Latest Capital City Observations: Canberra | Sydney | Melbourne | Brisbane | Adelaide | Perth | Hobart | Darwin

Other Formats:

Comma delimited format used in spreadsheet applications
http://www.bom.gov.au/fwo/IDN60901/IDN60901.95774.axf

JavaScript Object Notation format (JSON) in row-major order
http://www.bom.gov.au/fwo/IDN60901/IDN60901.95774.json